Time;durP1;ratioP1;P1;durP2;ratioP2;P2;SDS_P1;SDS_P2;PMS_P1;PMS_P2;Temp;Humidity;BMP_temperature;BMP_pressure;BME280_temperature;BME280_humidity;BME280_pressure;Samples;Min_cycle;Max_cycle;Signal;HPM_P1;HPM_P2
2023/08/18 00:00:48;;;;;;;7.13;4.15;;;16.90;99.90;;;;;;5047054;28;20238;-72
2023/08/18 00:03:32;;;;;;;5.93;4.28;;;17.00;99.90;;;;;;5032693;28;20194;-71
2023/08/18 00:06:17;;;;;;;7.43;4.30;;;17.00;99.90;;;;;;5045316;28;20194;-71
2023/08/18 00:09:01;;;;;;;7.47;3.87;;;17.00;99.90;;;;;;5037297;28;20213;-73
2023/08/18 00:11:45;;;;;;;5.70;4.20;;;17.00;99.90;;;;;;5031849;28;20201;-73
2023/08/18 00:14:29;;;;;;;5.33;3.43;;;16.90;99.90;;;;;;5030301;28;20182;-72
2023/08/18 00:17:13;;;;;;;5.37;4.07;;;16.90;99.90;;;;;;5038350;28;20190;-72
2023/08/18 00:19:57;;;;;;;5.47;3.93;;;17.00;99.90;;;;;;5028178;28;20187;-77
2023/08/18 00:22:42;;;;;;;8.13;4.30;;;17.00;99.90;;;;;;5040261;28;20183;-71
2023/08/18 00:25:26;;;;;;;6.77;3.97;;;17.00;99.90;;;;;;5031033;28;20191;-72
2023/08/18 00:28:11;;;;;;;10.02;4.22;;;16.90;99.90;;;;;;5039372;28;20202;-71
2023/08/18 00:30:55;;;;;;;5.27;3.97;;;16.90;99.90;;;;;;5027126;28;20273;-74
2023/08/18 00:33:40;;;;;;;5.67;3.90;;;16.90;99.90;;;;;;5039718;28;20199;-73
2023/08/18 00:36:27;;;;;;;6.93;3.97;;;17.00;99.90;;;;;;5033637;28;20248;-72
2023/08/18 00:39:12;;;;;;;5.53;4.00;;;17.00;99.90;;;;;;5037938;28;20700;-72
2023/08/18 00:41:56;;;;;;;7.30;3.60;;;17.00;99.90;;;;;;5036851;28;20325;-73
2023/08/18 00:44:40;;;;;;;5.60;4.13;;;17.00;99.90;;;;;;5039833;28;20194;-73
2023/08/18 00:47:25;;;;;;;5.30;4.30;;;17.00;99.90;;;;;;5041634;28;20183;-73
2023/08/18 00:50:11;;;;;;;8.27;4.83;;;17.00;99.90;;;;;;5041095;28;20298;-72
2023/08/18 00:52:57;;;;;;;5.82;3.83;;;17.00;99.90;;;;;;5038570;28;20188;-71
2023/08/18 00:55:42;;;;;;;5.30;4.30;;;17.00;99.90;;;;;;5041478;28;20205;-71
2023/08/18 00:58:26;;;;;;;6.23;4.60;;;17.00;99.90;;;;;;5036281;28;20179;-71
2023/08/18 01:01:12;;;;;;;5.95;4.20;;;17.00;99.90;;;;;;5046993;28;20218;-73
2023/08/18 01:03:57;;;;;;;7.20;4.40;;;17.00;99.90;;;;;;5031982;28;20230;-73
2023/08/18 01:06:42;;;;;;;5.73;4.30;;;17.00;99.90;;;;;;5039017;28;20245;-71
2023/08/18 01:09:27;;;;;;;9.45;4.40;;;17.00;99.90;;;;;;5035200;28;20269;-72
2023/08/18 01:12:59;;;;;;;7.53;4.40;;;17.00;99.90;;;;;;5032386;28;20214;-73
2023/08/18 01:15:45;;;;;;;7.03;4.40;;;17.00;99.90;;;;;;5044548;28;20176;-72
2023/08/18 01:18:32;;;;;;;4.80;4.27;;;17.00;99.90;;;;;;5033222;28;20218;-73
2023/08/18 01:21:17;;;;;;;6.67;4.70;;;17.00;99.90;;;;;;5032305;28;20576;-72
2023/08/18 01:24:03;;;;;;;8.23;5.07;;;17.00;99.90;;;;;;5034146;28;20544;-73
2023/08/18 01:26:48;;;;;;;6.43;4.20;;;17.00;99.90;;;;;;5031329;28;20676;-72
2023/08/18 01:29:32;;;;;;;8.07;4.30;;;17.00;99.90;;;;;;5038231;28;20260;-73
2023/08/18 01:32:18;;;;;;;7.45;4.60;;;17.00;99.90;;;;;;5036671;28;20231;-74
2023/08/18 01:35:05;;;;;;;7.40;4.67;;;17.10;99.90;;;;;;5034958;28;20267;-74
2023/08/18 01:37:50;;;;;;;4.93;4.27;;;17.00;99.90;;;;;;5035431;28;20610;-72
2023/08/18 01:40:37;;;;;;;5.77;4.70;;;17.00;99.90;;;;;;5037180;28;20221;-72
2023/08/18 01:43:22;;;;;;;6.63;4.20;;;17.00;99.90;;;;;;5034170;28;20210;-73
2023/08/18 01:46:06;;;;;;;9.03;4.67;;;17.00;99.90;;;;;;5035639;28;20202;-73
2023/08/18 01:48:50;;;;;;;6.72;4.30;;;17.00;99.90;;;;;;5031314;28;20658;-73
2023/08/18 01:51:35;;;;;;;5.93;4.20;;;17.00;99.90;;;;;;5034046;28;20217;-74
2023/08/18 01:54:19;;;;;;;4.80;4.10;;;17.00;99.90;;;;;;5034182;28;20186;-74
2023/08/18 01:57:04;;;;;;;5.07;3.90;;;17.00;99.90;;;;;;5035205;28;20234;-72
2023/08/18 01:59:48;;;;;;;5.13;3.43;;;17.10;99.90;;;;;;5033936;28;20194;-73
2023/08/18 02:02:32;;;;;;;8.40;4.40;;;17.10;99.90;;;;;;5036107;28;20689;-73
2023/08/18 02:05:16;;;;;;;8.23;4.18;;;17.10;99.90;;;;;;5034718;28;20214;-73
2023/08/18 02:08:01;;;;;;;7.90;3.80;;;17.10;99.90;;;;;;5034665;28;20195;-74
2023/08/18 02:10:45;;;;;;;5.20;4.00;;;17.10;99.90;;;;;;5033284;28;20298;-73
2023/08/18 02:13:30;;;;;;;9.43;4.27;;;17.10;99.90;;;;;;5034540;28;20198;-71
2023/08/18 02:16:15;;;;;;;7.03;4.20;;;17.10;99.90;;;;;;5033325;28;20195;-73
2023/08/18 02:18:59;;;;;;;7.77;3.80;;;17.10;99.90;;;;;;5036762;28;20262;-73
2023/08/18 02:21:43;;;;;;;5.43;3.57;;;17.10;99.90;;;;;;5036458;28;20265;-75
2023/08/18 02:24:28;;;;;;;6.72;3.80;;;17.00;99.90;;;;;;5032798;28;20187;-73
2023/08/18 02:27:12;;;;;;;7.80;3.83;;;17.00;99.90;;;;;;5031229;28;20179;-72
2023/08/18 02:29:56;;;;;;;5.60;3.57;;;17.00;99.90;;;;;;5035290;28;20225;-73
2023/08/18 02:32:41;;;;;;;6.20;3.70;;;17.00;99.90;;;;;;5031578;28;20202;-73
2023/08/18 02:35:25;;;;;;;4.93;3.50;;;17.10;99.90;;;;;;5033213;28;20305;-73
2023/08/18 02:38:11;;;;;;;4.80;3.73;;;17.10;99.90;;;;;;5033652;28;20234;-73
2023/08/18 02:40:56;;;;;;;7.30;3.77;;;17.10;99.90;;;;;;5035633;28;20214;-74
2023/08/18 02:43:50;;;;;;;7.83;3.33;;;17.10;99.90;;;;;;5036016;28;20181;-72
2023/08/18 02:46:34;;;;;;;4.83;3.70;;;17.10;99.90;;;;;;5033580;28;20194;-72
2023/08/18 02:49:19;;;;;;;6.17;3.63;;;17.10;99.90;;;;;;5032344;28;20206;-75
2023/08/18 02:52:03;;;;;;;6.30;3.43;;;17.10;99.90;;;;;;5034099;28;20303;-72
2023/08/18 02:54:47;;;;;;;3.90;3.43;;;17.10;99.90;;;;;;5031884;28;20221;-75
2023/08/18 02:57:31;;;;;;;5.50;3.37;;;17.10;99.90;;;;;;5033985;28;20183;-73
2023/08/18 03:00:16;;;;;;;6.77;3.50;;;17.10;99.90;;;;;;5035044;28;20190;-72
2023/08/18 03:03:00;;;;;;;7.37;3.60;;;17.00;99.90;;;;;;5048532;28;20183;-73
2023/08/18 03:05:46;;;;;;;6.18;3.35;;;17.00;99.90;;;;;;5041711;28;20294;-72
2023/08/18 03:08:31;;;;;;;8.40;3.63;;;17.10;99.90;;;;;;5032658;28;20206;-74
2023/08/18 03:11:15;;;;;;;7.05;3.40;;;17.10;99.90;;;;;;5034394;28;20241;-75
2023/08/18 03:13:59;;;;;;;7.25;3.67;;;17.10;99.90;;;;;;5031739;28;20179;-73
2023/08/18 03:16:43;;;;;;;10.10;3.60;;;17.10;99.90;;;;;;5035641;28;20194;-73
2023/08/18 03:19:27;;;;;;;6.93;3.27;;;17.10;99.90;;;;;;5031777;28;20210;-72
2023/08/18 03:22:11;;;;;;;3.93;3.20;;;17.10;99.90;;;;;;5033078;28;20218;-73
2023/08/18 03:24:56;;;;;;;6.50;3.20;;;17.10;99.90;;;;;;5035416;28;20241;-73
2023/08/18 03:27:41;;;;;;;7.33;3.30;;;17.10;99.90;;;;;;5033803;28;20245;-73
2023/08/18 03:30:25;;;;;;;8.97;3.37;;;17.10;99.90;;;;;;5034434;28;20337;-72
2023/08/18 03:33:09;;;;;;;5.03;3.53;;;17.20;99.90;;;;;;5034432;28;20681;-73
2023/08/18 03:35:54;;;;;;;7.97;3.80;;;17.20;99.90;;;;;;5030015;28;20179;-73
2023/08/18 03:38:38;;;;;;;8.98;3.22;;;17.10;99.90;;;;;;5031677;28;20271;-74
2023/08/18 03:41:22;;;;;;;7.70;3.53;;;17.10;99.90;;;;;;5031862;28;20291;-73
2023/08/18 03:44:06;;;;;;;4.80;3.17;;;17.10;99.90;;;;;;5032446;28;20243;-73
2023/08/18 03:46:51;;;;;;;4.63;2.90;;;17.10;99.90;;;;;;5034027;28;20210;-72
2023/08/18 03:49:35;;;;;;;3.53;2.83;;;17.10;99.90;;;;;;5035442;28;20222;-74
2023/08/18 03:52:20;;;;;;;4.83;3.17;;;17.10;99.90;;;;;;5033907;28;20238;-72
2023/08/18 03:55:04;;;;;;;5.40;3.10;;;17.10;99.90;;;;;;5035735;28;20202;-73
2023/08/18 03:57:49;;;;;;;3.47;2.87;;;17.10;99.90;;;;;;5047057;28;20194;-76
2023/08/18 04:00:33;;;;;;;5.87;3.30;;;17.00;99.90;;;;;;5032860;28;20234;-72
2023/08/18 04:03:17;;;;;;;7.97;3.40;;;17.00;99.90;;;;;;5031318;28;20689;-73
2023/08/18 04:06:05;;;;;;;4.30;2.90;;;17.00;99.90;;;;;;5033492;28;20241;-73
2023/08/18 04:09:15;;;;;;;4.87;2.90;;;17.00;99.90;;;;;;5047502;28;20187;-73
2023/08/18 04:11:59;;;;;;;5.20;2.87;;;17.00;99.90;;;;;;5033629;28;20211;-75
2023/08/18 04:14:43;;;;;;;5.23;3.17;;;17.00;99.90;;;;;;5039098;28;20232;-73
2023/08/18 04:17:28;;;;;;;3.70;2.70;;;17.10;99.90;;;;;;5037873;28;20186;-72
2023/08/18 04:20:12;;;;;;;4.37;2.63;;;17.10;99.90;;;;;;5037986;28;20225;-74
2023/08/18 04:22:56;;;;;;;4.83;3.40;;;17.10;99.90;;;;;;5039345;28;20632;-72
2023/08/18 04:25:44;;;;;;;4.27;2.73;;;17.10;99.90;;;;;;5038954;28;20195;-73
2023/08/18 04:28:29;;;;;;;5.27;2.67;;;17.10;99.90;;;;;;5050689;28;20187;-74
2023/08/18 04:31:14;;;;;;;4.00;2.47;;;17.10;99.90;;;;;;5035519;28;20242;-74
2023/08/18 04:33:58;;;;;;;4.70;2.70;;;17.10;99.90;;;;;;5036137;28;20547;-73
2023/08/18 04:36:43;;;;;;;3.70;2.63;;;17.10;99.90;;;;;;5035544;28;20241;-73
2023/08/18 04:39:27;;;;;;;3.20;2.27;;;17.10;99.90;;;;;;5039637;28;20230;-74
2023/08/18 04:42:11;;;;;;;6.60;3.07;;;17.10;99.90;;;;;;5036784;28;20218;-72
2023/08/18 04:44:56;;;;;;;4.80;2.97;;;17.10;99.90;;;;;;5036618;28;20243;-73
2023/08/18 04:47:40;;;;;;;3.47;2.53;;;17.10;99.90;;;;;;5042100;28;20194;-74
2023/08/18 04:50:24;;;;;;;2.77;2.43;;;17.10;99.90;;;;;;5034575;28;20257;-72
2023/08/18 04:53:09;;;;;;;2.13;2.03;;;17.10;99.90;;;;;;5041750;28;20595;-71
2023/08/18 04:55:53;;;;;;;3.77;2.40;;;17.10;99.90;;;;;;5037050;28;20255;-71
2023/08/18 04:58:37;;;;;;;3.33;2.40;;;17.10;99.90;;;;;;5050123;28;20206;-69
2023/08/18 05:01:21;;;;;;;3.10;2.50;;;17.10;99.90;;;;;;5036601;28;20218;-69
2023/08/18 05:04:05;;;;;;;5.07;2.60;;;17.10;99.90;;;;;;5035070;28;20221;-69
2023/08/18 05:06:49;;;;;;;2.60;2.40;;;17.10;99.90;;;;;;5036070;28;20241;-70
2023/08/18 05:09:34;;;;;;;4.00;2.30;;;17.10;99.90;;;;;;5035217;28;20218;-70
2023/08/18 05:12:20;;;;;;;2.10;2.00;;;17.10;99.90;;;;;;5047985;28;20245;-69
2023/08/18 05:15:04;;;;;;;4.68;2.45;;;17.20;99.90;;;;;;5034067;28;20180;-70
2023/08/18 05:17:51;;;;;;;7.55;2.45;;;17.20;99.90;;;;;;5038171;28;20190;-70
2023/08/18 05:20:35;;;;;;;4.93;2.50;;;17.20;99.90;;;;;;5030440;28;20650;-69
2023/08/18 05:23:19;;;;;;;5.85;2.30;;;17.20;99.90;;;;;;5032862;28;20182;-70
2023/08/18 05:26:03;;;;;;;4.97;2.63;;;17.20;99.90;;;;;;5042028;28;20203;-70
2023/08/18 05:28:47;;;;;;;4.30;2.67;;;17.30;99.90;;;;;;5050705;28;20183;-70
2023/08/18 05:31:32;;;;;;;4.10;2.92;;;17.30;99.90;;;;;;5037794;28;20223;-71
2023/08/18 05:34:16;;;;;;;4.70;2.50;;;17.30;99.90;;;;;;5032352;28;20283;-70
2023/08/18 05:37:00;;;;;;;6.85;2.65;;;17.30;99.90;;;;;;5032967;28;20230;-70
2023/08/18 05:39:44;;;;;;;7.65;2.92;;;17.30;99.90;;;;;;5048816;28;20271;-71
2023/08/18 05:42:28;;;;;;;6.35;3.05;;;17.30;99.90;;;;;;5036978;28;20227;-71
2023/08/18 05:45:12;;;;;;;4.38;2.60;;;17.30;99.90;;;;;;5040763;28;20201;-71
2023/08/18 05:47:56;;;;;;;3.25;2.38;;;17.40;99.90;;;;;;5033199;28;20202;-71
2023/08/18 05:50:41;;;;;;;6.15;2.53;;;17.40;99.90;;;;;;5034835;28;20241;-71
2023/08/18 05:53:25;;;;;;;7.38;2.67;;;17.40;99.90;;;;;;5049339;28;20191;-71
2023/08/18 05:56:10;;;;;;;2.00;1.70;;;17.40;99.90;;;;;;5048287;28;20273;-71
2023/08/18 05:58:54;;;;;;;6.15;2.30;;;17.50;99.90;;;;;;5045967;28;20237;-71
2023/08/18 06:01:38;;;;;;;2.63;2.20;;;17.50;99.90;;;;;;5035078;28;20206;-71
2023/08/18 06:04:22;;;;;;;4.30;2.33;;;17.50;99.90;;;;;;5030802;28;20256;-72
2023/08/18 06:07:06;;;;;;;5.18;2.35;;;17.50;99.90;;;;;;5057420;28;20190;-70
2023/08/18 06:09:50;;;;;;;6.70;2.10;;;17.50;99.90;;;;;;5033558;28;20202;-70
2023/08/18 06:12:35;;;;;;;3.65;2.10;;;17.50;99.90;;;;;;5032550;28;20214;-70
2023/08/18 06:15:21;;;;;;;4.50;2.00;;;17.50;99.90;;;;;;5034782;28;20178;-70
2023/08/18 06:18:05;;;;;;;5.43;2.30;;;17.50;99.90;;;;;;5045953;28;20202;-71
2023/08/18 06:20:50;;;;;;;2.70;1.88;;;17.50;99.90;;;;;;5042520;28;20215;-70
2023/08/18 06:23:34;;;;;;;3.95;1.98;;;17.60;99.90;;;;;;5032873;28;20233;-70
2023/08/18 06:26:18;;;;;;;4.55;2.10;;;17.60;99.90;;;;;;5031024;28;20241;-71
2023/08/18 06:29:02;;;;;;;3.67;2.10;;;17.60;99.90;;;;;;5046092;28;20202;-70
2023/08/18 06:31:46;;;;;;;4.57;2.70;;;17.70;99.90;;;;;;5046224;28;20226;-70
2023/08/18 06:34:30;;;;;;;8.20;2.83;;;17.60;99.90;;;;;;5025183;28;20199;-70
2023/08/18 06:37:15;;;;;;;6.93;2.20;;;17.60;99.90;;;;;;5029162;28;20215;-70
2023/08/18 06:39:59;;;;;;;6.40;2.85;;;17.60;99.90;;;;;;5045081;28;20230;-71
2023/08/18 06:42:43;;;;;;;7.05;2.63;;;17.60;99.90;;;;;;5032942;28;20313;-71
2023/08/18 06:45:27;;;;;;;7.13;2.70;;;17.70;99.90;;;;;;5034650;28;20194;-70
2023/08/18 06:48:11;;;;;;;7.10;2.85;;;17.70;99.90;;;;;;5046545;28;20182;-70
2023/08/18 06:50:55;;;;;;;4.70;2.60;;;17.80;99.90;;;;;;5031309;28;20257;-70
2023/08/18 06:53:40;;;;;;;5.80;3.60;;;17.80;99.90;;;;;;5032171;28;20206;-70
2023/08/18 06:56:23;;;;;;;6.10;2.95;;;17.80;99.90;;;;;;5047312;28;20194;-70
2023/08/18 06:59:08;;;;;;;8.25;3.35;;;17.90;99.90;;;;;;5029820;28;20191;-70
2023/08/18 07:01:53;;;;;;;9.52;3.47;;;17.90;99.90;;;;;;5031473;28;20556;-72
2023/08/18 07:04:37;;;;;;;9.65;3.50;;;17.90;99.90;;;;;;5030221;28;20183;-70
2023/08/18 07:07:22;;;;;;;10.88;3.50;;;17.90;99.90;;;;;;5032285;28;20190;-70
2023/08/18 07:10:06;;;;;;;7.97;3.25;;;17.90;99.90;;;;;;5030085;28;20214;-70
2023/08/18 07:12:50;;;;;;;7.93;3.55;;;18.00;99.90;;;;;;5043940;28;20666;-70
2023/08/18 07:15:34;;;;;;;11.57;3.83;;;18.00;99.90;;;;;;5034926;28;20191;-70
2023/08/18 07:18:19;;;;;;;9.80;4.10;;;18.00;99.90;;;;;;5033154;28;20248;-70
2023/08/18 07:21:03;;;;;;;7.95;3.22;;;18.10;99.90;;;;;;5038399;28;20582;-70
2023/08/18 07:23:48;;;;;;;9.90;2.97;;;18.10;99.90;;;;;;5048575;28;20214;-71
2023/08/18 07:26:32;;;;;;;3.97;2.75;;;18.20;99.90;;;;;;5048554;28;20621;-71
2023/08/18 07:29:16;;;;;;;8.68;3.22;;;18.20;99.90;;;;;;5029979;28;20653;-72
2023/08/18 07:32:01;;;;;;;5.30;2.55;;;18.20;99.90;;;;;;5049199;28;20333;-70
2023/08/18 07:34:45;;;;;;;6.72;2.58;;;18.30;99.90;;;;;;5047070;28;20246;-70
2023/08/18 07:37:29;;;;;;;6.32;2.63;;;18.30;99.90;;;;;;5029977;28;20233;-70
2023/08/18 07:40:13;;;;;;;4.85;2.83;;;18.40;99.90;;;;;;5050564;28;20206;-71
2023/08/18 07:42:58;;;;;;;5.22;2.53;;;18.50;99.90;;;;;;5030851;28;20245;-71
2023/08/18 07:45:42;;;;;;;5.10;2.88;;;18.50;99.90;;;;;;5028960;28;20202;-69
2023/08/18 07:48:26;;;;;;;8.75;2.53;;;18.60;99.90;;;;;;5038087;28;20193;-70
2023/08/18 07:51:11;;;;;;;8.77;2.53;;;18.60;99.90;;;;;;5029101;28;20237;-70
2023/08/18 07:53:55;;;;;;;9.00;2.72;;;18.70;99.90;;;;;;5054450;28;20187;-71
2023/08/18 07:56:39;;;;;;;6.75;2.83;;;18.70;99.90;;;;;;5032908;28;20703;-70
2023/08/18 07:59:23;;;;;;;3.85;2.42;;;18.80;99.90;;;;;;5052584;28;20185;-71
2023/08/18 08:02:08;;;;;;;7.70;3.05;;;18.80;99.90;;;;;;5036244;28;20210;-71
2023/08/18 08:04:52;;;;;;;3.72;2.33;;;18.90;99.90;;;;;;5057578;28;20183;-71
2023/08/18 08:07:36;;;;;;;3.33;2.47;;;19.00;99.90;;;;;;5039854;28;20203;-69
2023/08/18 08:10:20;;;;;;;4.60;2.80;;;19.10;99.90;;;;;;5035859;28;20250;-70
2023/08/18 08:13:04;;;;;;;6.90;3.38;;;19.10;99.90;;;;;;5036427;28;20202;-71
2023/08/18 08:15:48;;;;;;;3.03;2.40;;;19.20;99.90;;;;;;5037614;28;20194;-70
2023/08/18 08:18:33;;;;;;;4.05;2.42;;;19.20;99.90;;;;;;5037839;28;20203;-71
2023/08/18 08:21:17;;;;;;;6.30;2.97;;;19.30;99.90;;;;;;5035556;28;20605;-71
2023/08/18 08:24:02;;;;;;;8.82;3.17;;;19.40;99.90;;;;;;5035387;28;20266;-71
2023/08/18 08:26:46;;;;;;;4.97;2.83;;;19.50;99.90;;;;;;5049713;28;20310;-71
2023/08/18 08:29:30;;;;;;;4.72;3.17;;;19.60;99.90;;;;;;5033596;28;20285;-72
2023/08/18 08:32:15;;;;;;;5.32;3.10;;;19.70;99.90;;;;;;5039116;28;20226;-71
2023/08/18 08:34:59;;;;;;;6.20;3.17;;;19.80;99.90;;;;;;5036831;28;20265;-71
2023/08/18 08:37:43;;;;;;;5.22;3.58;;;19.80;99.90;;;;;;5037002;28;20338;-70
2023/08/18 08:40:27;;;;;;;5.22;3.17;;;19.80;99.90;;;;;;5039405;28;20190;-73
2023/08/18 08:43:11;;;;;;;10.13;3.95;;;19.90;99.90;;;;;;5036697;28;20241;-71
2023/08/18 08:45:58;;;;;;;11.52;4.13;;;20.00;99.90;;;;;;5042902;28;20198;-71
2023/08/18 08:48:46;;;;;;;6.90;4.03;;;20.10;99.90;;;;;;5057756;28;20241;-70
2023/08/18 08:51:33;;;;;;;4.63;4.05;;;20.30;99.90;;;;;;5035573;28;20209;-72
2023/08/18 08:54:20;;;;;;;5.78;4.13;;;20.30;99.90;;;;;;5038178;28;20690;-72
2023/08/18 08:57:07;;;;;;;5.75;3.88;;;20.40;99.90;;;;;;5054061;28;20190;-72
2023/08/18 08:59:51;;;;;;;6.47;3.90;;;20.50;99.90;;;;;;5035612;28;20186;-72
2023/08/18 09:02:38;;;;;;;8.73;3.67;;;20.60;99.90;;;;;;5033275;28;20226;-72
2023/08/18 09:05:28;;;;;;;7.13;5.03;;;20.70;99.90;;;;;;5037342;28;20314;-72
2023/08/18 09:08:12;;;;;;;6.63;4.38;;;20.80;99.90;;;;;;5034855;28;20701;-72
2023/08/18 09:10:57;;;;;;;6.15;4.43;;;20.90;99.90;;;;;;5038553;28;20775;-71
2023/08/18 09:13:41;;;;;;;6.65;4.60;;;21.00;99.90;;;;;;5035219;28;20189;-72
2023/08/18 09:16:25;;;;;;;7.75;4.75;;;21.00;99.90;;;;;;5037651;28;20698;-71
2023/08/18 09:19:16;;;;;;;7.45;4.97;;;21.10;99.90;;;;;;5032356;28;20186;-73
2023/08/18 09:22:05;;;;;;;8.80;4.93;;;21.20;99.90;;;;;;5036093;28;20341;-72
2023/08/18 09:24:51;;;;;;;6.38;5.07;;;21.30;99.90;;;;;;5049332;28;20202;-71
2023/08/18 09:27:35;;;;;;;8.07;5.50;;;21.40;99.90;;;;;;5052949;28;20186;-71
2023/08/18 09:30:19;;;;;;;6.63;5.57;;;21.40;99.90;;;;;;5034920;28;20230;-72
2023/08/18 09:33:03;;;;;;;9.40;5.80;;;21.50;99.90;;;;;;5029850;28;20209;-73
2023/08/18 09:35:57;;;;;;;7.65;5.43;;;21.60;99.90;;;;;;5050989;28;20191;-72
2023/08/18 09:38:42;;;;;;;7.07;6.15;;;21.70;99.90;;;;;;5033046;28;20190;-71
2023/08/18 09:41:26;;;;;;;7.05;5.13;;;21.80;99.90;;;;;;5053976;28;20261;-73
2023/08/18 09:44:11;;;;;;;7.03;5.20;;;21.80;99.90;;;;;;5033993;28;20190;-72
2023/08/18 09:46:56;;;;;;;7.72;4.95;;;21.90;99.90;;;;;;5047678;28;20646;-71
2023/08/18 09:49:42;;;;;;;6.03;5.43;;;22.00;99.90;;;;;;5030688;28;20258;-71
2023/08/18 09:52:28;;;;;;;9.50;5.95;;;22.10;99.90;;;;;;5048704;28;20328;-70
2023/08/18 09:55:19;;;;;;;6.50;5.53;;;22.10;99.90;;;;;;5034877;28;20186;-72
2023/08/18 09:58:20;;;;;;;8.23;6.13;;;22.20;99.90;;;;;;5036284;28;20199;-72
2023/08/18 10:01:06;;;;;;;6.15;5.07;;;22.30;99.90;;;;;;5037770;28;20248;-72
2023/08/18 10:03:53;;;;;;;8.23;5.70;;;22.40;99.90;;;;;;5032215;28;20190;-71
2023/08/18 10:06:39;;;;;;;8.48;5.40;;;22.50;99.90;;;;;;5028542;28;20218;-72
2023/08/18 10:09:27;;;;;;;10.13;5.20;;;22.70;99.90;;;;;;5037975;28;20241;-71
2023/08/18 10:12:11;;;;;;;8.20;5.28;;;22.90;99.90;;;;;;5032706;28;20241;-70
2023/08/18 10:14:57;;;;;;;6.90;5.45;;;23.00;99.90;;;;;;5032560;28;20233;-72
2023/08/18 10:17:42;;;;;;;6.85;5.20;;;23.00;99.90;;;;;;5032263;28;20201;-72
2023/08/18 10:20:27;;;;;;;7.05;5.10;;;23.10;99.90;;;;;;5032203;28;20197;-71
2023/08/18 10:23:11;;;;;;;7.85;5.82;;;23.20;99.90;;;;;;5034492;28;20241;-70
2023/08/18 10:25:55;;;;;;;9.40;6.35;;;23.30;99.90;;;;;;5032697;28;20195;-70
2023/08/18 10:28:40;;;;;;;8.82;5.97;;;23.50;99.90;;;;;;5031093;28;20195;-72
2023/08/18 10:31:27;;;;;;;6.93;5.70;;;23.50;99.90;;;;;;5032167;28;20702;-71
2023/08/18 10:34:22;;;;;;;7.93;6.80;;;23.50;99.90;;;;;;5055586;28;20261;-72
2023/08/18 10:37:14;;;;;;;7.63;6.93;;;23.60;99.90;;;;;;5016721;28;20266;-72
2023/08/18 10:40:08;;;;;;;9.13;7.25;;;23.70;99.90;;;;;;5034106;28;20194;-72
2023/08/18 10:42:59;;;;;;;9.43;6.50;;;23.70;99.90;;;;;;5030953;28;20221;-73
2023/08/18 10:45:49;;;;;;;7.82;7.10;;;23.80;99.90;;;;;;5045201;28;20656;-73
2023/08/18 10:48:33;;;;;;;8.02;7.20;;;23.80;99.90;;;;;;5034119;28;20194;-72
2023/08/18 10:51:19;;;;;;;7.32;6.72;;;23.90;99.90;;;;;;5045844;28;20222;-72
2023/08/18 10:54:07;;;;;;;8.00;7.22;;;23.90;99.90;;;;;;5027167;28;20346;-72
2023/08/18 10:56:52;;;;;;;8.13;7.30;;;24.10;99.90;;;;;;5026365;28;20198;-72
2023/08/18 10:59:36;;;;;;;7.82;7.07;;;24.30;99.90;;;;;;5035637;28;20190;-72
2023/08/18 11:02:21;;;;;;;9.52;7.80;;;24.40;99.90;;;;;;5034152;28;20238;-73
2023/08/18 11:05:06;;;;;;;9.57;8.02;;;24.50;99.90;;;;;;5029617;28;20186;-73
2023/08/18 11:07:50;;;;;;;10.75;8.88;;;24.60;99.90;;;;;;5031984;28;20186;-73
2023/08/18 11:10:36;;;;;;;9.40;8.45;;;24.70;99.90;;;;;;5032800;28;20276;-73
2023/08/18 11:13:24;;;;;;;10.25;9.25;;;24.70;99.90;;;;;;5030716;28;20206;-73
2023/08/18 11:16:09;;;;;;;10.07;9.18;;;24.70;99.90;;;;;;5033270;28;20550;-73
2023/08/18 11:18:53;;;;;;;11.27;8.95;;;24.70;99.90;;;;;;5046022;28;20202;-73
2023/08/18 11:21:38;;;;;;;9.02;8.23;;;24.70;99.90;;;;;;5033208;28;20217;-73
2023/08/18 11:24:23;;;;;;;11.23;8.18;;;24.70;99.90;;;;;;5032683;28;20236;-73
2023/08/18 11:27:07;;;;;;;10.30;9.02;;;24.70;99.90;;;;;;5034791;28;20249;-73
2023/08/18 11:29:52;;;;;;;9.88;8.85;;;24.90;99.90;;;;;;5033280;28;20592;-72
2023/08/18 11:32:37;;;;;;;9.70;8.77;;;24.90;99.90;;;;;;5032567;28;20679;-74
2023/08/18 11:35:22;;;;;;;10.23;8.60;;;25.00;99.90;;;;;;5032420;28;20240;-73
2023/08/18 11:38:08;;;;;;;9.32;8.40;;;25.10;99.90;;;;;;5047670;28;20186;-74
2023/08/18 11:40:52;;;;;;;10.55;8.85;;;25.20;99.90;;;;;;5030507;28;20218;-74
2023/08/18 11:43:36;;;;;;;9.75;8.85;;;25.30;99.90;;;;;;5030304;28;20186;-73
2023/08/18 11:46:20;;;;;;;10.10;8.25;;;25.30;99.90;;;;;;5031993;28;20222;-73
2023/08/18 11:49:18;;;;;;;8.88;7.78;;;25.30;99.90;;;;;;5033253;28;20261;-73
2023/08/18 11:52:04;;;;;;;9.20;8.30;;;25.30;99.90;;;;;;5033169;28;20300;-74
2023/08/18 11:54:49;;;;;;;10.32;8.35;;;25.40;99.90;;;;;;5047873;28;20190;-73
2023/08/18 11:57:33;;;;;;;9.43;8.60;;;25.60;99.90;;;;;;5034661;28;20226;-72
2023/08/18 12:00:18;;;;;;;9.20;8.23;;;25.70;99.90;;;;;;5048141;28;20283;-74
2023/08/18 12:03:18;;;;;;;9.23;7.63;;;25.80;99.90;;;;;;5049539;28;20266;-72
2023/08/18 12:06:02;;;;;;;9.30;8.25;;;25.90;99.90;;;;;;5032539;28;20190;-72
2023/08/18 12:08:47;;;;;;;9.15;8.25;;;25.90;99.90;;;;;;5033912;28;20198;-72
2023/08/18 12:11:34;;;;;;;11.90;7.97;;;25.90;99.90;;;;;;5033284;28;20242;-74
2023/08/18 12:14:19;;;;;;;9.52;8.55;;;25.90;99.90;;;;;;5032124;28;20199;-74
2023/08/18 12:17:03;;;;;;;9.18;8.20;;;26.00;99.90;;;;;;5032186;28;20186;-73
2023/08/18 12:19:47;;;;;;;10.15;8.23;;;26.00;99.90;;;;;;5047956;28;20214;-74
2023/08/18 12:22:31;;;;;;;8.60;7.80;;;26.10;99.90;;;;;;5029979;28;20257;-74
2023/08/18 12:25:16;;;;;;;8.32;7.53;;;26.10;99.90;;;;;;5029033;28;20194;-73
2023/08/18 12:28:01;;;;;;;8.60;7.70;;;26.20;99.90;;;;;;5031664;28;20190;-74
2023/08/18 12:30:45;;;;;;;8.75;7.95;;;26.20;99.90;;;;;;5031471;28;20434;-73
2023/08/18 12:33:29;;;;;;;8.73;7.93;;;26.20;99.90;;;;;;5044476;28;20640;-73
2023/08/18 12:36:14;;;;;;;7.68;7.07;;;26.20;99.90;;;;;;5035167;28;20214;-72
2023/08/18 12:38:59;;;;;;;8.73;7.80;;;26.30;99.90;;;;;;5034965;28;20666;-73
2023/08/18 12:41:44;;;;;;;8.85;8.05;;;26.30;99.90;;;;;;5035510;28;20214;-73
2023/08/18 12:44:28;;;;;;;9.00;8.07;;;26.40;99.90;;;;;;5033452;28;20210;-73
2023/08/18 12:47:12;;;;;;;8.32;7.53;;;26.50;99.90;;;;;;5037187;28;20186;-75
2023/08/18 12:49:56;;;;;;;12.05;7.60;;;26.50;99.90;;;;;;5048490;28;20260;-74
2023/08/18 12:52:40;;;;;;;8.43;7.70;;;26.60;99.90;;;;;;5033300;28;20249;-73
2023/08/18 12:55:24;;;;;;;8.93;7.63;;;26.60;99.90;;;;;;5034943;28;20195;-74
2023/08/18 12:58:08;;;;;;;10.63;7.63;;;26.60;99.90;;;;;;5049259;28;20233;-73
2023/08/18 13:00:52;;;;;;;8.50;6.82;;;26.60;99.90;;;;;;5049982;28;20582;-73
2023/08/18 13:03:36;;;;;;;7.78;6.72;;;26.60;99.90;;;;;;5037925;28;20763;-74
2023/08/18 13:06:20;;;;;;;8.30;7.45;;;26.80;99.90;;;;;;5049850;28;20266;-73
2023/08/18 13:09:05;;;;;;;9.02;6.68;;;27.00;99.90;;;;;;5036409;28;20194;-72
2023/08/18 13:11:49;;;;;;;8.27;7.15;;;27.10;99.90;;;;;;5052503;28;20211;-73
2023/08/18 13:14:34;;;;;;;10.68;7.53;;;27.20;99.90;;;;;;5047636;28;20195;-73
2023/08/18 13:17:18;;;;;;;8.30;7.47;;;27.30;99.90;;;;;;5034673;28;20187;-74
2023/08/18 13:20:03;;;;;;;10.52;7.40;;;27.40;99.90;;;;;;5034162;28;20254;-73
2023/08/18 13:22:47;;;;;;;8.13;7.05;;;27.40;99.90;;;;;;5033876;28;20249;-72
2023/08/18 13:25:32;;;;;;;8.40;7.45;;;27.50;99.90;;;;;;5050293;28;20186;-73
2023/08/18 13:28:17;;;;;;;8.60;6.95;;;27.50;99.90;;;;;;5050020;28;20230;-73
2023/08/18 13:31:00;;;;;;;8.55;7.53;;;27.60;99.90;;;;;;5050649;28;20313;-72
2023/08/18 13:33:45;;;;;;;8.98;7.38;;;27.60;99.90;;;;;;5033217;28;20191;-72
2023/08/18 13:36:29;;;;;;;7.85;7.15;;;27.60;99.90;;;;;;5051298;28;20271;-73
2023/08/18 13:39:15;;;;;;;7.78;7.10;;;27.60;99.90;;;;;;5034497;28;20179;-73
2023/08/18 13:41:59;;;;;;;10.88;6.82;;;27.60;99.90;;;;;;5032705;28;20273;-72
2023/08/18 13:44:43;;;;;;;7.90;7.22;;;27.70;99.90;;;;;;5034846;28;20717;-74
2023/08/18 13:47:28;;;;;;;9.13;7.10;;;27.70;99.90;;;;;;5035810;28;20686;-73
2023/08/18 13:50:12;;;;;;;8.30;7.40;;;27.80;99.90;;;;;;5033494;28;20735;-74
2023/08/18 13:52:57;;;;;;;7.78;6.70;;;27.90;99.90;;;;;;5036598;28;20186;-72
2023/08/18 13:55:44;;;;;;;8.13;7.15;;;28.00;99.90;;;;;;5035778;28;20194;-73
2023/08/18 13:58:28;;;;;;;7.60;6.90;;;28.00;99.90;;;;;;5026145;28;20211;-73
2023/08/18 14:01:12;;;;;;;8.30;6.78;;;28.10;99.90;;;;;;5047004;28;20256;-72
2023/08/18 14:03:59;;;;;;;8.15;6.97;;;28.10;99.90;;;;;;5037373;28;20674;-73
2023/08/18 14:06:43;;;;;;;9.00;6.80;;;28.10;99.90;;;;;;5030805;28;20213;-72
2023/08/18 14:09:27;;;;;;;7.20;6.47;;;28.00;99.90;;;;;;5033931;28;20211;-74
2023/08/18 14:12:11;;;;;;;9.50;6.82;;;28.00;99.90;;;;;;5049397;28;20222;-73
2023/08/18 14:14:56;;;;;;;7.15;6.47;;;28.00;99.90;;;;;;5048647;28;20277;-74
2023/08/18 14:17:42;;;;;;;12.90;7.32;;;28.00;99.90;;;;;;5034308;28;20187;-72